sensor_id;sensor_type;location;lat;lon;timestamp;P1;durP1;ratioP1;P2;durP2;ratioP2
44328;SDS011;30039;51.462;6.892;2023-04-23T00:00:10;38.97;;;21.30;;
44328;SDS011;30039;51.462;6.892;2023-04-23T00:02:57;39.45;;;20.55;;
44328;SDS011;30039;51.462;6.892;2023-04-23T00:05:45;38.95;;;21.35;;
44328;SDS011;30039;51.462;6.892;2023-04-23T00:08:31;36.50;;;21.33;;
44328;SDS011;30039;51.462;6.892;2023-04-23T00:11:17;36.22;;;21.10;;
44328;SDS011;30039;51.462;6.892;2023-04-23T00:14:03;39.70;;;21.88;;
44328;SDS011;30039;51.462;6.892;2023-04-23T00:16:48;40.58;;;21.40;;
44328;SDS011;30039;51.462;6.892;2023-04-23T00:19:34;41.22;;;21.67;;
44328;SDS011;30039;51.462;6.892;2023-04-23T00:22:20;33.95;;;20.55;;
44328;SDS011;30039;51.462;6.892;2023-04-23T00:25:07;40.53;;;21.98;;
44328;SDS011;30039;51.462;6.892;2023-04-23T00:27:52;40.00;;;22.60;;
44328;SDS011;30039;51.462;6.892;2023-04-23T00:30:38;37.55;;;22.00;;
44328;SDS011;30039;51.462;6.892;2023-04-23T00:33:25;46.80;;;23.38;;
44328;SDS011;30039;51.462;6.892;2023-04-23T00:36:11;41.92;;;22.95;;
44328;SDS011;30039;51.462;6.892;2023-04-23T00:38:57;40.80;;;22.73;;
44328;SDS011;30039;51.462;6.892;2023-04-23T00:41:42;41.38;;;22.25;;
44328;SDS011;30039;51.462;6.892;2023-04-23T00:44:28;36.13;;;21.23;;
44328;SDS011;30039;51.462;6.892;2023-04-23T00:47:14;38.35;;;21.42;;
44328;SDS011;30039;51.462;6.892;2023-04-23T00:50:00;38.05;;;21.10;;
44328;SDS011;30039;51.462;6.892;2023-04-23T00:52:47;35.35;;;21.40;;
44328;SDS011;30039;51.462;6.892;2023-04-23T00:55:33;38.15;;;22.25;;
44328;SDS011;30039;51.462;6.892;2023-04-23T00:58:19;35.72;;;20.45;;
44328;SDS011;30039;51.462;6.892;2023-04-23T01:01:05;32.85;;;19.77;;
44328;SDS011;30039;51.462;6.892;2023-04-23T01:03:51;36.95;;;20.40;;
44328;SDS011;30039;51.462;6.892;2023-04-23T01:06:37;37.33;;;20.25;;
44328;SDS011;30039;51.462;6.892;2023-04-23T01:09:23;36.03;;;20.42;;
44328;SDS011;30039;51.462;6.892;2023-04-23T01:12:09;35.50;;;20.20;;
44328;SDS011;30039;51.462;6.892;2023-04-23T01:14:55;35.15;;;19.92;;
44328;SDS011;30039;51.462;6.892;2023-04-23T01:17:41;32.88;;;18.50;;
44328;SDS011;30039;51.462;6.892;2023-04-23T01:20:27;28.65;;;18.38;;
44328;SDS011;30039;51.462;6.892;2023-04-23T01:23:13;31.15;;;17.80;;
44328;SDS011;30039;51.462;6.892;2023-04-23T01:25:59;29.50;;;17.50;;
44328;SDS011;30039;51.462;6.892;2023-04-23T01:28:45;29.45;;;17.95;;
44328;SDS011;30039;51.462;6.892;2023-04-23T01:31:31;30.05;;;16.23;;
44328;SDS011;30039;51.462;6.892;2023-04-23T01:34:17;27.73;;;17.58;;
44328;SDS011;30039;51.462;6.892;2023-04-23T01:37:05;28.00;;;16.15;;
44328;SDS011;30039;51.462;6.892;2023-04-23T01:39:51;28.08;;;16.40;;
44328;SDS011;30039;51.462;6.892;2023-04-23T01:42:37;28.20;;;15.63;;
44328;SDS011;30039;51.462;6.892;2023-04-23T01:45:24;25.45;;;14.82;;
44328;SDS011;30039;51.462;6.892;2023-04-23T01:48:10;26.63;;;14.85;;
44328;SDS011;30039;51.462;6.892;2023-04-23T01:50:55;27.08;;;15.63;;
44328;SDS011;30039;51.462;6.892;2023-04-23T01:53:41;26.10;;;15.15;;
44328;SDS011;30039;51.462;6.892;2023-04-23T01:56:27;26.23;;;15.57;;
44328;SDS011;30039;51.462;6.892;2023-04-23T01:59:15;22.98;;;14.45;;
44328;SDS011;30039;51.462;6.892;2023-04-23T02:02:01;29.10;;;15.70;;
44328;SDS011;30039;51.462;6.892;2023-04-23T02:04:47;22.58;;;14.73;;
44328;SDS011;30039;51.462;6.892;2023-04-23T02:07:34;25.45;;;14.82;;
44328;SDS011;30039;51.462;6.892;2023-04-23T02:10:21;23.98;;;14.82;;
44328;SDS011;30039;51.462;6.892;2023-04-23T02:13:07;24.02;;;15.13;;
44328;SDS011;30039;51.462;6.892;2023-04-23T02:15:52;24.83;;;14.93;;
44328;SDS011;30039;51.462;6.892;2023-04-23T02:18:38;26.80;;;14.75;;
44328;SDS011;30039;51.462;6.892;2023-04-23T02:21:24;25.67;;;14.88;;
44328;SDS011;30039;51.462;6.892;2023-04-23T02:24:10;26.38;;;15.95;;
44328;SDS011;30039;51.462;6.892;2023-04-23T02:26:56;22.33;;;13.73;;
44328;SDS011;30039;51.462;6.892;2023-04-23T02:29:42;23.00;;;14.23;;
44328;SDS011;30039;51.462;6.892;2023-04-23T02:32:28;22.80;;;14.05;;
44328;SDS011;30039;51.462;6.892;2023-04-23T02:35:13;22.13;;;14.52;;
44328;SDS011;30039;51.462;6.892;2023-04-23T02:37:59;22.20;;;13.75;;
44328;SDS011;30039;51.462;6.892;2023-04-23T02:40:45;23.05;;;13.77;;
44328;SDS011;30039;51.462;6.892;2023-04-23T02:43:30;22.70;;;13.65;;
44328;SDS011;30039;51.462;6.892;2023-04-23T02:46:16;24.08;;;14.55;;
44328;SDS011;30039;51.462;6.892;2023-04-23T02:49:02;21.90;;;13.27;;
44328;SDS011;30039;51.462;6.892;2023-04-23T02:51:49;23.30;;;14.23;;
44328;SDS011;30039;51.462;6.892;2023-04-23T02:54:35;21.23;;;14.13;;
44328;SDS011;30039;51.462;6.892;2023-04-23T02:57:23;25.58;;;14.30;;
44328;SDS011;30039;51.462;6.892;2023-04-23T03:00:09;24.73;;;14.55;;
44328;SDS011;30039;51.462;6.892;2023-04-23T03:02:56;22.38;;;13.98;;
44328;SDS011;30039;51.462;6.892;2023-04-23T03:05:42;24.02;;;14.27;;
44328;SDS011;30039;51.462;6.892;2023-04-23T03:08:28;23.55;;;14.98;;
44328;SDS011;30039;51.462;6.892;2023-04-23T03:11:14;22.70;;;14.90;;
44328;SDS011;30039;51.462;6.892;2023-04-23T03:13:59;23.17;;;14.00;;
44328;SDS011;30039;51.462;6.892;2023-04-23T03:16:45;22.92;;;14.35;;
44328;SDS011;30039;51.462;6.892;2023-04-23T03:19:32;23.77;;;14.18;;
44328;SDS011;30039;51.462;6.892;2023-04-23T03:22:17;21.30;;;13.80;;
44328;SDS011;30039;51.462;6.892;2023-04-23T03:25:03;21.75;;;13.65;;
44328;SDS011;30039;51.462;6.892;2023-04-23T03:27:49;24.98;;;14.25;;
44328;SDS011;30039;51.462;6.892;2023-04-23T03:30:35;21.55;;;14.25;;
44328;SDS011;30039;51.462;6.892;2023-04-23T03:33:21;19.40;;;12.73;;
44328;SDS011;30039;51.462;6.892;2023-04-23T03:36:07;20.60;;;13.80;;
44328;SDS011;30039;51.462;6.892;2023-04-23T03:38:52;23.42;;;14.27;;
44328;SDS011;30039;51.462;6.892;2023-04-23T03:41:38;22.70;;;13.68;;
44328;SDS011;30039;51.462;6.892;2023-04-23T03:44:24;20.73;;;12.88;;
44328;SDS011;30039;51.462;6.892;2023-04-23T03:47:10;21.80;;;13.68;;
44328;SDS011;30039;51.462;6.892;2023-04-23T03:49:56;21.10;;;14.35;;
44328;SDS011;30039;51.462;6.892;2023-04-23T03:52:42;22.67;;;14.32;;
44328;SDS011;30039;51.462;6.892;2023-04-23T03:55:27;21.77;;;14.02;;
44328;SDS011;30039;51.462;6.892;2023-04-23T03:58:13;21.13;;;13.95;;
44328;SDS011;30039;51.462;6.892;2023-04-23T04:00:59;23.73;;;13.80;;
44328;SDS011;30039;51.462;6.892;2023-04-23T04:03:45;21.42;;;13.63;;
44328;SDS011;30039;51.462;6.892;2023-04-23T04:06:30;19.98;;;13.20;;
44328;SDS011;30039;51.462;6.892;2023-04-23T04:09:16;20.88;;;13.48;;
44328;SDS011;30039;51.462;6.892;2023-04-23T04:12:02;22.33;;;13.00;;
44328;SDS011;30039;51.462;6.892;2023-04-23T04:14:48;23.17;;;14.20;;
44328;SDS011;30039;51.462;6.892;2023-04-23T04:17:34;22.40;;;13.60;;
44328;SDS011;30039;51.462;6.892;2023-04-23T04:20:20;23.95;;;14.20;;
44328;SDS011;30039;51.462;6.892;2023-04-23T04:23:05;20.23;;;12.73;;
44328;SDS011;30039;51.462;6.892;2023-04-23T04:25:51;21.60;;;13.10;;
44328;SDS011;30039;51.462;6.892;2023-04-23T04:28:40;21.02;;;12.93;;
44328;SDS011;30039;51.462;6.892;2023-04-23T04:31:27;20.90;;;12.73;;
44328;SDS011;30039;51.462;6.892;2023-04-23T04:34:12;23.40;;;12.90;;
44328;SDS011;30039;51.462;6.892;2023-04-23T04:36:59;19.83;;;12.60;;
44328;SDS011;30039;51.462;6.892;2023-04-23T04:39:45;19.48;;;12.95;;
44328;SDS011;30039;51.462;6.892;2023-04-23T04:42:31;20.08;;;12.60;;
44328;SDS011;30039;51.462;6.892;2023-04-23T04:45:16;18.83;;;13.07;;
44328;SDS011;30039;51.462;6.892;2023-04-23T04:48:02;20.02;;;12.70;;
44328;SDS011;30039;51.462;6.892;2023-04-23T04:50:48;18.58;;;12.50;;
44328;SDS011;30039;51.462;6.892;2023-04-23T04:53:34;18.55;;;12.88;;
44328;SDS011;30039;51.462;6.892;2023-04-23T04:56:20;19.33;;;11.48;;
44328;SDS011;30039;51.462;6.892;2023-04-23T04:59:08;19.15;;;12.10;;
44328;SDS011;30039;51.462;6.892;2023-04-23T05:01:54;22.30;;;12.70;;
44328;SDS011;30039;51.462;6.892;2023-04-23T05:04:39;16.27;;;11.32;;
44328;SDS011;30039;51.462;6.892;2023-04-23T05:07:25;19.45;;;12.27;;
44328;SDS011;30039;51.462;6.892;2023-04-23T05:10:11;21.10;;;12.30;;
44328;SDS011;30039;51.462;6.892;2023-04-23T05:12:57;20.50;;;12.25;;
44328;SDS011;30039;51.462;6.892;2023-04-23T05:15:49;19.02;;;12.35;;
44328;SDS011;30039;51.462;6.892;2023-04-23T05:18:34;18.40;;;11.43;;
44328;SDS011;30039;51.462;6.892;2023-04-23T05:21:20;19.83;;;11.35;;
44328;SDS011;30039;51.462;6.892;2023-04-23T05:24:06;19.23;;;11.85;;
44328;SDS011;30039;51.462;6.892;2023-04-23T05:26:52;17.80;;;12.23;;
44328;SDS011;30039;51.462;6.892;2023-04-23T05:29:37;18.38;;;11.27;;
44328;SDS011;30039;51.462;6.892;2023-04-23T05:32:23;17.52;;;11.30;;
44328;SDS011;30039;51.462;6.892;2023-04-23T05:35:09;16.80;;;11.35;;
44328;SDS011;30039;51.462;6.892;2023-04-23T05:37:54;14.77;;;10.68;;
44328;SDS011;30039;51.462;6.892;2023-04-23T05:40:41;18.67;;;11.48;;
44328;SDS011;30039;51.462;6.892;2023-04-23T05:43:26;16.25;;;10.30;;
44328;SDS011;30039;51.462;6.892;2023-04-23T05:46:12;15.80;;;10.32;;
44328;SDS011;30039;51.462;6.892;2023-04-23T05:48:58;14.82;;;9.98;;
44328;SDS011;30039;51.462;6.892;2023-04-23T05:51:43;19.02;;;10.20;;
44328;SDS011;30039;51.462;6.892;2023-04-23T05:54:29;14.02;;;9.90;;
44328;SDS011;30039;51.462;6.892;2023-04-23T05:57:16;13.10;;;9.15;;
44328;SDS011;30039;51.462;6.892;2023-04-23T06:00:03;15.73;;;8.90;;
44328;SDS011;30039;51.462;6.892;2023-04-23T06:02:50;12.90;;;8.60;;
44328;SDS011;30039;51.462;6.892;2023-04-23T06:05:36;13.65;;;9.02;;
44328;SDS011;30039;51.462;6.892;2023-04-23T06:08:22;11.90;;;8.82;;
44328;SDS011;30039;51.462;6.892;2023-04-23T06:11:08;14.55;;;8.75;;
44328;SDS011;30039;51.462;6.892;2023-04-23T06:13:53;12.88;;;8.57;;
44328;SDS011;30039;51.462;6.892;2023-04-23T06:16:41;13.90;;;8.65;;
44328;SDS011;30039;51.462;6.892;2023-04-23T06:19:26;12.02;;;8.60;;
44328;SDS011;30039;51.462;6.892;2023-04-23T06:22:12;11.27;;;8.70;;
44328;SDS011;30039;51.462;6.892;2023-04-23T06:24:58;11.63;;;8.35;;
44328;SDS011;30039;51.462;6.892;2023-04-23T06:27:44;14.65;;;9.75;;
44328;SDS011;30039;51.462;6.892;2023-04-23T06:30:29;13.85;;;8.73;;
44328;SDS011;30039;51.462;6.892;2023-04-23T06:33:15;12.52;;;8.30;;
44328;SDS011;30039;51.462;6.892;2023-04-23T06:36:04;12.48;;;8.45;;
44328;SDS011;30039;51.462;6.892;2023-04-23T06:38:50;14.90;;;9.25;;
44328;SDS011;30039;51.462;6.892;2023-04-23T06:41:36;12.55;;;8.65;;
44328;SDS011;30039;51.462;6.892;2023-04-23T06:44:22;11.98;;;8.45;;
44328;SDS011;30039;51.462;6.892;2023-04-23T06:47:08;11.10;;;7.88;;
44328;SDS011;30039;51.462;6.892;2023-04-23T06:49:54;12.43;;;8.00;;
44328;SDS011;30039;51.462;6.892;2023-04-23T06:52:40;13.25;;;8.35;;
44328;SDS011;30039;51.462;6.892;2023-04-23T06:55:25;10.80;;;7.45;;
44328;SDS011;30039;51.462;6.892;2023-04-23T06:58:13;11.07;;;7.85;;
44328;SDS011;30039;51.462;6.892;2023-04-23T07:00:58;13.02;;;8.05;;
44328;SDS011;30039;51.462;6.892;2023-04-23T07:03:45;10.25;;;7.20;;
44328;SDS011;30039;51.462;6.892;2023-04-23T07:06:33;10.55;;;8.05;;
44328;SDS011;30039;51.462;6.892;2023-04-23T07:09:20;12.32;;;7.50;;
44328;SDS011;30039;51.462;6.892;2023-04-23T07:12:05;10.07;;;7.22;;
44328;SDS011;30039;51.462;6.892;2023-04-23T07:14:51;12.00;;;7.70;;
44328;SDS011;30039;51.462;6.892;2023-04-23T07:17:38;14.23;;;7.38;;
44328;SDS011;30039;51.462;6.892;2023-04-23T07:20:24;9.93;;;6.70;;
44328;SDS011;30039;51.462;6.892;2023-04-23T07:23:10;9.90;;;6.47;;
44328;SDS011;30039;51.462;6.892;2023-04-23T07:25:56;9.32;;;6.05;;
44328;SDS011;30039;51.462;6.892;2023-04-23T07:28:41;11.88;;;5.40;;
44328;SDS011;30039;51.462;6.892;2023-04-23T07:31:27;8.32;;;5.10;;
44328;SDS011;30039;51.462;6.892;2023-04-23T07:34:13;8.35;;;5.28;;
44328;SDS011;30039;51.462;6.892;2023-04-23T07:36:59;6.82;;;5.00;;
44328;SDS011;30039;51.462;6.892;2023-04-23T07:39:44;8.60;;;4.43;;
44328;SDS011;30039;51.462;6.892;2023-04-23T07:42:30;8.68;;;5.32;;
44328;SDS011;30039;51.462;6.892;2023-04-23T07:45:16;15.25;;;7.80;;
44328;SDS011;30039;51.462;6.892;2023-04-23T07:48:02;9.50;;;5.47;;
44328;SDS011;30039;51.462;6.892;2023-04-23T07:50:48;11.80;;;7.18;;
44328;SDS011;30039;51.462;6.892;2023-04-23T07:53:34;5.75;;;3.80;;
44328;SDS011;30039;51.462;6.892;2023-04-23T07:56:20;6.00;;;3.47;;
44328;SDS011;30039;51.462;6.892;2023-04-23T07:59:06;6.78;;;4.03;;
44328;SDS011;30039;51.462;6.892;2023-04-23T08:01:54;7.20;;;3.15;;
44328;SDS011;30039;51.462;6.892;2023-04-23T08:04:40;6.05;;;3.45;;
44328;SDS011;30039;51.462;6.892;2023-04-23T08:07:25;5.80;;;3.15;;
44328;SDS011;30039;51.462;6.892;2023-04-23T08:10:11;5.90;;;3.40;;
44328;SDS011;30039;51.462;6.892;2023-04-23T08:12:56;5.43;;;3.00;;
44328;SDS011;30039;51.462;6.892;2023-04-23T08:15:42;5.13;;;3.15;;
44328;SDS011;30039;51.462;6.892;2023-04-23T08:18:28;4.32;;;2.88;;
44328;SDS011;30039;51.462;6.892;2023-04-23T08:21:13;5.85;;;2.90;;
44328;SDS011;30039;51.462;6.892;2023-04-23T08:23:59;7.18;;;3.25;;
44328;SDS011;30039;51.462;6.892;2023-04-23T08:26:47;5.53;;;3.20;;
44328;SDS011;30039;51.462;6.892;2023-04-23T08:29:32;5.97;;;3.22;;
44328;SDS011;30039;51.462;6.892;2023-04-23T08:32:18;6.88;;;2.80;;
44328;SDS011;30039;51.462;6.892;2023-04-23T08:35:04;5.68;;;2.90;;
44328;SDS011;30039;51.462;6.892;2023-04-23T08:37:50;5.53;;;3.20;;
44328;SDS011;30039;51.462;6.892;2023-04-23T08:40:36;5.70;;;3.15;;
44328;SDS011;30039;51.462;6.892;2023-04-23T08:43:27;4.30;;;2.50;;
44328;SDS011;30039;51.462;6.892;2023-04-23T08:46:15;5.18;;;3.00;;
44328;SDS011;30039;51.462;6.892;2023-04-23T08:49:02;5.85;;;2.53;;
44328;SDS011;30039;51.462;6.892;2023-04-23T08:51:51;6.22;;;3.00;;
44328;SDS011;30039;51.462;6.892;2023-04-23T08:54:37;6.47;;;3.28;;
44328;SDS011;30039;51.462;6.892;2023-04-23T08:57:26;3.63;;;2.70;;
44328;SDS011;30039;51.462;6.892;2023-04-23T09:00:12;5.82;;;2.80;;
44328;SDS011;30039;51.462;6.892;2023-04-23T09:02:58;4.43;;;3.05;;
44328;SDS011;30039;51.462;6.892;2023-04-23T09:05:45;5.35;;;2.58;;
44328;SDS011;30039;51.462;6.892;2023-04-23T09:08:31;3.85;;;1.90;;
44328;SDS011;30039;51.462;6.892;2023-04-23T09:11:17;3.15;;;1.90;;
44328;SDS011;30039;51.462;6.892;2023-04-23T09:14:03;5.68;;;2.50;;
44328;SDS011;30039;51.462;6.892;2023-04-23T09:16:49;5.88;;;2.70;;
44328;SDS011;30039;51.462;6.892;2023-04-23T09:19:35;4.97;;;2.20;;
44328;SDS011;30039;51.462;6.892;2023-04-23T09:22:38;5.85;;;2.00;;
44328;SDS011;30039;51.462;6.892;2023-04-23T09:25:26;5.90;;;2.50;;
44328;SDS011;30039;51.462;6.892;2023-04-23T09:28:11;4.28;;;2.40;;
44328;SDS011;30039;51.462;6.892;2023-04-23T09:30:58;3.92;;;2.20;;
44328;SDS011;30039;51.462;6.892;2023-04-23T09:33:49;3.00;;;1.83;;
44328;SDS011;30039;51.462;6.892;2023-04-23T09:36:35;6.18;;;2.67;;
44328;SDS011;30039;51.462;6.892;2023-04-23T09:39:21;5.07;;;2.45;;
44328;SDS011;30039;51.462;6.892;2023-04-23T09:42:07;4.93;;;1.88;;
44328;SDS011;30039;51.462;6.892;2023-04-23T09:45:16;4.22;;;2.20;;
44328;SDS011;30039;51.462;6.892;2023-04-23T09:48:02;5.82;;;2.47;;
44328;SDS011;30039;51.462;6.892;2023-04-23T09:50:48;5.68;;;2.40;;
44328;SDS011;30039;51.462;6.892;2023-04-23T09:53:41;3.30;;;2.03;;
44328;SDS011;30039;51.462;6.892;2023-04-23T09:56:28;2.50;;;1.60;;
44328;SDS011;30039;51.462;6.892;2023-04-23T09:59:27;3.60;;;1.98;;
44328;SDS011;30039;51.462;6.892;2023-04-23T10:02:13;5.13;;;1.70;;
44328;SDS011;30039;51.462;6.892;2023-04-23T10:04:59;5.80;;;1.77;;
44328;SDS011;30039;51.462;6.892;2023-04-23T10:07:44;6.18;;;2.00;;
44328;SDS011;30039;51.462;6.892;2023-04-23T10:10:36;3.65;;;2.60;;
44328;SDS011;30039;51.462;6.892;2023-04-23T10:13:22;3.58;;;1.65;;
44328;SDS011;30039;51.462;6.892;2023-04-23T10:16:10;4.50;;;1.80;;
44328;SDS011;30039;51.462;6.892;2023-04-23T10:18:56;3.42;;;1.70;;
44328;SDS011;30039;51.462;6.892;2023-04-23T10:21:45;4.40;;;2.03;;
44328;SDS011;30039;51.462;6.892;2023-04-23T10:24:34;5.38;;;1.88;;
44328;SDS011;30039;51.462;6.892;2023-04-23T10:27:22;5.18;;;2.08;;
44328;SDS011;30039;51.462;6.892;2023-04-23T10:30:14;4.43;;;2.13;;
44328;SDS011;30039;51.462;6.892;2023-04-23T10:33:00;8.30;;;3.50;;
44328;SDS011;30039;51.462;6.892;2023-04-23T10:35:48;5.20;;;2.60;;
44328;SDS011;30039;51.462;6.892;2023-04-23T10:38:40;13.68;;;5.63;;
44328;SDS011;30039;51.462;6.892;2023-04-23T10:41:30;2.58;;;1.52;;
44328;SDS011;30039;51.462;6.892;2023-04-23T10:44:20;4.85;;;1.73;;
44328;SDS011;30039;51.462;6.892;2023-04-23T10:47:13;7.18;;;2.10;;
44328;SDS011;30039;51.462;6.892;2023-04-23T10:50:02;3.90;;;1.85;;
44328;SDS011;30039;51.462;6.892;2023-04-23T10:53:02;5.20;;;2.20;;
44328;SDS011;30039;51.462;6.892;2023-04-23T10:56:06;6.18;;;1.73;;
44328;SDS011;30039;51.462;6.892;2023-04-23T10:59:00;2.95;;;2.00;;
44328;SDS011;30039;51.462;6.892;2023-04-23T11:04:57;2.15;;;1.45;;
44328;SDS011;30039;51.462;6.892;2023-04-23T11:08:06;3.47;;;1.95;;
44328;SDS011;30039;51.462;6.892;2023-04-23T11:10:59;3.70;;;1.70;;
44328;SDS011;30039;51.462;6.892;2023-04-23T11:13:51;2.53;;;1.40;;
44328;SDS011;30039;51.462;6.892;2023-04-23T11:16:47;5.70;;;1.80;;
44328;SDS011;30039;51.462;6.892;2023-04-23T11:19:34;1.73;;;1.25;;
44328;SDS011;30039;51.462;6.892;2023-04-23T11:22:27;2.97;;;1.40;;
44328;SDS011;30039;51.462;6.892;2023-04-23T11:25:25;1.55;;;0.90;;
44328;SDS011;30039;51.462;6.892;2023-04-23T11:28:23;2.60;;;1.10;;
44328;SDS011;30039;51.462;6.892;2023-04-23T11:31:10;1.70;;;1.10;;
44328;SDS011;30039;51.462;6.892;2023-04-23T11:33:56;1.70;;;1.10;;
44328;SDS011;30039;51.462;6.892;2023-04-23T11:36:43;3.42;;;1.33;;
44328;SDS011;30039;51.462;6.892;2023-04-23T11:39:31;3.03;;;1.25;;
44328;SDS011;30039;51.462;6.892;2023-04-23T11:42:17;1.55;;;1.00;;
44328;SDS011;30039;51.462;6.892;2023-04-23T11:45:19;2.35;;;1.10;;
44328;SDS011;30039;51.462;6.892;2023-04-23T11:51:31;2.90;;;1.30;;
44328;SDS011;30039;51.462;6.892;2023-04-23T11:54:17;1.80;;;1.02;;
44328;SDS011;30039;51.462;6.892;2023-04-23T11:57:07;3.80;;;1.15;;
44328;SDS011;30039;51.462;6.892;2023-04-23T11:59:54;3.05;;;1.30;;
44328;SDS011;30039;51.462;6.892;2023-04-23T12:02:53;3.28;;;1.40;;
44328;SDS011;30039;51.462;6.892;2023-04-23T12:05:45;3.05;;;1.40;;
44328;SDS011;30039;51.462;6.892;2023-04-23T12:08:36;4.15;;;1.23;;
44328;SDS011;30039;51.462;6.892;2023-04-23T12:11:25;4.47;;;1.33;;
44328;SDS011;30039;51.462;6.892;2023-04-23T12:14:24;2.33;;;1.20;;
44328;SDS011;30039;51.462;6.892;2023-04-23T12:17:14;3.17;;;1.10;;
44328;SDS011;30039;51.462;6.892;2023-04-23T12:25:57;2.20;;;1.05;;
44328;SDS011;30039;51.462;6.892;2023-04-23T12:29:00;4.40;;;1.50;;
44328;SDS011;30039;51.462;6.892;2023-04-23T12:31:46;2.58;;;1.00;;
44328;SDS011;30039;51.462;6.892;2023-04-23T12:34:32;1.80;;;0.90;;
44328;SDS011;30039;51.462;6.892;2023-04-23T12:37:23;1.42;;;1.00;;
44328;SDS011;30039;51.462;6.892;2023-04-23T12:40:12;2.30;;;1.17;;
44328;SDS011;30039;51.462;6.892;2023-04-23T12:42:58;3.15;;;1.00;;
44328;SDS011;30039;51.462;6.892;2023-04-23T12:45:45;3.50;;;1.35;;
44328;SDS011;30039;51.462;6.892;2023-04-23T12:48:35;3.40;;;1.40;;
44328;SDS011;30039;51.462;6.892;2023-04-23T12:51:28;3.55;;;1.40;;
44328;SDS011;30039;51.462;6.892;2023-04-23T12:54:15;1.70;;;0.93;;
44328;SDS011;30039;51.462;6.892;2023-04-23T12:57:09;3.05;;;1.20;;
44328;SDS011;30039;51.462;6.892;2023-04-23T12:59:55;2.92;;;1.23;;
44328;SDS011;30039;51.462;6.892;2023-04-23T13:02:43;5.32;;;1.00;;
44328;SDS011;30039;51.462;6.892;2023-04-23T13:05:29;2.83;;;1.13;;
44328;SDS011;30039;51.462;6.892;2023-04-23T13:08:15;1.65;;;0.90;;
44328;SDS011;30039;51.462;6.892;2023-04-23T13:11:01;3.47;;;1.20;;
44328;SDS011;30039;51.462;6.892;2023-04-23T13:13:47;3.60;;;1.13;;
44328;SDS011;30039;51.462;6.892;2023-04-23T13:16:44;1.45;;;0.82;;
44328;SDS011;30039;51.462;6.892;2023-04-23T13:19:39;1.75;;;1.02;;
44328;SDS011;30039;51.462;6.892;2023-04-23T13:25:49;3.00;;;1.00;;
44328;SDS011;30039;51.462;6.892;2023-04-23T13:28:38;3.60;;;0.98;;
44328;SDS011;30039;51.462;6.892;2023-04-23T13:31:25;1.73;;;0.90;;
44328;SDS011;30039;51.462;6.892;2023-04-23T13:34:22;3.28;;;1.08;;
44328;SDS011;30039;51.462;6.892;2023-04-23T13:37:10;2.50;;;0.90;;
44328;SDS011;30039;51.462;6.892;2023-04-23T13:39:59;3.42;;;1.10;;
44328;SDS011;30039;51.462;6.892;2023-04-23T13:43:08;1.13;;;0.75;;
44328;SDS011;30039;51.462;6.892;2023-04-23T13:45:57;1.48;;;0.93;;
44328;SDS011;30039;51.462;6.892;2023-04-23T13:48:45;2.80;;;0.80;;
44328;SDS011;30039;51.462;6.892;2023-04-23T13:51:33;4.57;;;1.00;;
44328;SDS011;30039;51.462;6.892;2023-04-23T13:54:33;1.83;;;1.00;;
44328;SDS011;30039;51.462;6.892;2023-04-23T13:57:26;5.00;;;1.00;;
44328;SDS011;30039;51.462;6.892;2023-04-23T14:07:07;2.85;;;0.90;;
44328;SDS011;30039;51.462;6.892;2023-04-23T14:09:54;3.83;;;0.90;;
44328;SDS011;30039;51.462;6.892;2023-04-23T14:12:46;3.17;;;1.00;;
44328;SDS011;30039;51.462;6.892;2023-04-23T14:15:48;1.67;;;0.60;;
44328;SDS011;30039;51.462;6.892;2023-04-23T14:22:22;1.80;;;0.80;;
44328;SDS011;30039;51.462;6.892;2023-04-23T14:32:24;1.40;;;1.00;;
44328;SDS011;30039;51.462;6.892;2023-04-23T14:35:11;2.00;;;1.08;;
44328;SDS011;30039;51.462;6.892;2023-04-23T14:37:57;1.75;;;0.90;;
44328;SDS011;30039;51.462;6.892;2023-04-23T14:40:42;5.30;;;1.10;;
44328;SDS011;30039;51.462;6.892;2023-04-23T14:43:28;2.42;;;1.08;;
44328;SDS011;30039;51.462;6.892;2023-04-23T14:46:14;2.70;;;1.05;;
44328;SDS011;30039;51.462;6.892;2023-04-23T14:49:00;4.07;;;1.13;;
44328;SDS011;30039;51.462;6.892;2023-04-23T14:51:46;3.75;;;1.08;;
44328;SDS011;30039;51.462;6.892;2023-04-23T14:54:32;1.83;;;0.90;;
44328;SDS011;30039;51.462;6.892;2023-04-23T14:57:17;2.35;;;1.10;;
44328;SDS011;30039;51.462;6.892;2023-04-23T15:00:03;2.90;;;1.20;;
44328;SDS011;30039;51.462;6.892;2023-04-23T15:02:49;4.72;;;1.27;;
44328;SDS011;30039;51.462;6.892;2023-04-23T15:05:38;1.83;;;1.10;;
44328;SDS011;30039;51.462;6.892;2023-04-23T15:08:25;2.50;;;0.93;;
44328;SDS011;30039;51.462;6.892;2023-04-23T15:11:11;2.10;;;1.00;;
44328;SDS011;30039;51.462;6.892;2023-04-23T15:14:19;2.22;;;0.80;;
44328;SDS011;30039;51.462;6.892;2023-04-23T15:17:08;1.73;;;0.95;;
44328;SDS011;30039;51.462;6.892;2023-04-23T15:19:54;1.05;;;0.73;;
44328;SDS011;30039;51.462;6.892;2023-04-23T15:22:41;1.88;;;0.80;;
44328;SDS011;30039;51.462;6.892;2023-04-23T15:25:28;1.40;;;0.80;;
44328;SDS011;30039;51.462;6.892;2023-04-23T15:28:13;1.58;;;0.88;;
44328;SDS011;30039;51.462;6.892;2023-04-23T15:30:59;2.60;;;0.90;;
44328;SDS011;30039;51.462;6.892;2023-04-23T15:33:45;2.17;;;0.98;;
44328;SDS011;30039;51.462;6.892;2023-04-23T15:36:32;2.22;;;0.70;;
44328;SDS011;30039;51.462;6.892;2023-04-23T15:39:19;1.65;;;0.80;;
44328;SDS011;30039;51.462;6.892;2023-04-23T15:42:04;2.67;;;0.90;;
44328;SDS011;30039;51.462;6.892;2023-04-23T15:44:52;1.63;;;0.80;;
44328;SDS011;30039;51.462;6.892;2023-04-23T15:47:40;1.35;;;0.70;;
44328;SDS011;30039;51.462;6.892;2023-04-23T15:50:26;3.58;;;0.90;;
44328;SDS011;30039;51.462;6.892;2023-04-23T15:53:12;1.33;;;0.98;;
44328;SDS011;30039;51.462;6.892;2023-04-23T15:55:59;2.10;;;1.00;;
44328;SDS011;30039;51.462;6.892;2023-04-23T15:58:45;2.33;;;0.90;;
44328;SDS011;30039;51.462;6.892;2023-04-23T16:01:30;1.98;;;1.02;;
44328;SDS011;30039;51.462;6.892;2023-04-23T16:04:16;1.30;;;0.90;;
44328;SDS011;30039;51.462;6.892;2023-04-23T16:07:02;2.92;;;1.40;;
44328;SDS011;30039;51.462;6.892;2023-04-23T16:09:49;2.75;;;1.30;;
44328;SDS011;30039;51.462;6.892;2023-04-23T16:12:35;1.35;;;1.02;;
44328;SDS011;30039;51.462;6.892;2023-04-23T16:15:21;2.58;;;1.27;;
44328;SDS011;30039;51.462;6.892;2023-04-23T16:18:07;5.88;;;1.40;;
44328;SDS011;30039;51.462;6.892;2023-04-23T16:20:53;3.28;;;1.40;;
44328;SDS011;30039;51.462;6.892;2023-04-23T16:23:38;7.45;;;3.63;;
44328;SDS011;30039;51.462;6.892;2023-04-23T16:26:24;3.42;;;1.73;;
44328;SDS011;30039;51.462;6.892;2023-04-23T16:29:10;4.82;;;1.67;;
44328;SDS011;30039;51.462;6.892;2023-04-23T16:31:55;9.13;;;1.95;;
44328;SDS011;30039;51.462;6.892;2023-04-23T16:34:41;4.00;;;1.58;;
44328;SDS011;30039;51.462;6.892;2023-04-23T16:37:27;5.78;;;1.98;;
44328;SDS011;30039;51.462;6.892;2023-04-23T16:40:13;3.75;;;1.60;;
44328;SDS011;30039;51.462;6.892;2023-04-23T16:43:00;3.35;;;1.50;;
44328;SDS011;30039;51.462;6.892;2023-04-23T16:45:46;5.28;;;1.70;;
44328;SDS011;30039;51.462;6.892;2023-04-23T16:48:31;5.40;;;1.83;;
44328;SDS011;30039;51.462;6.892;2023-04-23T16:51:17;3.00;;;1.58;;
44328;SDS011;30039;51.462;6.892;2023-04-23T16:54:02;5.18;;;1.95;;
44328;SDS011;30039;51.462;6.892;2023-04-23T16:56:48;3.67;;;1.70;;
44328;SDS011;30039;51.462;6.892;2023-04-23T16:59:34;4.20;;;2.08;;
44328;SDS011;30039;51.462;6.892;2023-04-23T17:02:20;6.68;;;2.20;;
44328;SDS011;30039;51.462;6.892;2023-04-23T17:05:06;5.32;;;1.73;;
44328;SDS011;30039;51.462;6.892;2023-04-23T17:07:52;4.50;;;2.00;;